Terminal Aerodrome Forecast
Issued by NWS Albany, NY

Home | Current Version | Previous Version | Text Only | Print | Product List | Glossary On
Versions: 1 2 3 4 5 6 7 8 9 10 11 12 13 14 15
000
FTUS41 KALY 302357 CCA
TAFALB
TAF COR
KALB 302357Z 0100/0124 00000KT 5SM -RA BKN040 OVC060
     FM010200 04005KT 3SM BR VCSH SCT025 OVC040
     FM010400 04005KT 3SM BR VCSH SCT015 OVC025
     FM011400 35009KT 3SM BR VCSH BKN015 OVC025=

USA.gov is the U.S. government's official web portal to all federal, state and local government web resources and services.